sensor_id;sensor_type;location;lat;lon;timestamp;temperature;humidity
61145;DHT22;47026;51.208;3.288;2022-08-03T00:01:58;20.00;99.90
61145;DHT22;47026;51.208;3.288;2022-08-03T00:04:24;19.90;99.90
61145;DHT22;47026;51.208;3.288;2022-08-03T00:06:50;19.80;99.90
61145;DHT22;47026;51.208;3.288;2022-08-03T00:09:16;19.80;99.90
61145;DHT22;47026;51.208;3.288;2022-08-03T00:11:42;19.80;99.90
61145;DHT22;47026;51.208;3.288;2022-08-03T00:14:08;19.80;99.90
61145;DHT22;47026;51.208;3.288;2022-08-03T00:16:34;19.80;99.90
61145;DHT22;47026;51.208;3.288;2022-08-03T00:19:00;19.90;99.90
61145;DHT22;47026;51.208;3.288;2022-08-03T00:21:27;20.00;99.90
61145;DHT22;47026;51.208;3.288;2022-08-03T00:23:53;19.80;99.90
61145;DHT22;47026;51.208;3.288;2022-08-03T00:26:22;19.90;99.90
61145;DHT22;47026;51.208;3.288;2022-08-03T00:28:49;20.00;99.90
61145;DHT22;47026;51.208;3.288;2022-08-03T00:31:15;20.00;99.90
61145;DHT22;47026;51.208;3.288;2022-08-03T00:33:41;20.10;99.90
61145;DHT22;47026;51.208;3.288;2022-08-03T00:36:07;20.10;99.90
61145;DHT22;47026;51.208;3.288;2022-08-03T00:38:33;19.90;99.90
61145;DHT22;47026;51.208;3.288;2022-08-03T00:40:59;19.80;99.90
61145;DHT22;47026;51.208;3.288;2022-08-03T00:43:25;19.90;99.90
61145;DHT22;47026;51.208;3.288;2022-08-03T00:45:52;20.10;99.90
61145;DHT22;47026;51.208;3.288;2022-08-03T00:48:19;19.90;99.90
61145;DHT22;47026;51.208;3.288;2022-08-03T00:50:45;20.00;99.90
61145;DHT22;47026;51.208;3.288;2022-08-03T00:53:13;19.90;99.90
61145;DHT22;47026;51.208;3.288;2022-08-03T00:55:40;19.70;99.90
61145;DHT22;47026;51.208;3.288;2022-08-03T00:58:07;19.80;99.90
61145;DHT22;47026;51.208;3.288;2022-08-03T01:00:35;19.80;99.90
61145;DHT22;47026;51.208;3.288;2022-08-03T01:03:04;19.90;99.90
61145;DHT22;47026;51.208;3.288;2022-08-03T01:05:43;19.80;99.90
61145;DHT22;47026;51.208;3.288;2022-08-03T01:08:37;19.60;99.90
61145;DHT22;47026;51.208;3.288;2022-08-03T01:11:23;19.60;99.90
61145;DHT22;47026;51.208;3.288;2022-08-03T01:16:31;20.10;99.90
61145;DHT22;47026;51.208;3.288;2022-08-03T01:19:30;20.00;99.90
61145;DHT22;47026;51.208;3.288;2022-08-03T01:22:07;19.80;99.90
61145;DHT22;47026;51.208;3.288;2022-08-03T01:27:49;19.60;99.90
61145;DHT22;47026;51.208;3.288;2022-08-03T01:30:17;19.50;99.90
61145;DHT22;47026;51.208;3.288;2022-08-03T01:32:45;19.50;99.90
61145;DHT22;47026;51.208;3.288;2022-08-03T01:35:23;19.70;99.90
61145;DHT22;47026;51.208;3.288;2022-08-03T01:37:59;19.70;99.90
61145;DHT22;47026;51.208;3.288;2022-08-03T01:40:27;19.50;99.90
61145;DHT22;47026;51.208;3.288;2022-08-03T01:42:55;19.50;99.90
61145;DHT22;47026;51.208;3.288;2022-08-03T01:45:24;19.70;99.90
61145;DHT22;47026;51.208;3.288;2022-08-03T01:47:52;19.80;99.90
61145;DHT22;47026;51.208;3.288;2022-08-03T01:50:25;19.90;99.90
61145;DHT22;47026;51.208;3.288;2022-08-03T01:52:53;19.50;99.90
61145;DHT22;47026;51.208;3.288;2022-08-03T01:55:22;19.20;99.90
61145;DHT22;47026;51.208;3.288;2022-08-03T01:57:49;19.20;99.90
61145;DHT22;47026;51.208;3.288;2022-08-03T02:00:16;19.20;99.90
61145;DHT22;47026;51.208;3.288;2022-08-03T02:02:46;19.10;99.90
61145;DHT22;47026;51.208;3.288;2022-08-03T02:05:13;19.00;99.90
61145;DHT22;47026;51.208;3.288;2022-08-03T02:07:41;19.30;99.90
61145;DHT22;47026;51.208;3.288;2022-08-03T02:10:09;19.30;99.90
61145;DHT22;47026;51.208;3.288;2022-08-03T02:12:36;19.20;99.90
61145;DHT22;47026;51.208;3.288;2022-08-03T02:15:03;19.30;99.90
61145;DHT22;47026;51.208;3.288;2022-08-03T02:17:31;19.40;99.90
61145;DHT22;47026;51.208;3.288;2022-08-03T02:19:59;19.20;99.90
61145;DHT22;47026;51.208;3.288;2022-08-03T02:22:27;18.90;99.90
61145;DHT22;47026;51.208;3.288;2022-08-03T02:24:54;18.80;99.90
61145;DHT22;47026;51.208;3.288;2022-08-03T02:27:25;18.70;99.90
61145;DHT22;47026;51.208;3.288;2022-08-03T02:30:00;18.70;99.90
61145;DHT22;47026;51.208;3.288;2022-08-03T02:32:39;18.70;99.90
61145;DHT22;47026;51.208;3.288;2022-08-03T02:35:10;18.70;99.90
61145;DHT22;47026;51.208;3.288;2022-08-03T02:37:41;18.70;99.90
61145;DHT22;47026;51.208;3.288;2022-08-03T02:40:09;18.70;99.90
61145;DHT22;47026;51.208;3.288;2022-08-03T02:42:37;18.80;99.90
61145;DHT22;47026;51.208;3.288;2022-08-03T02:45:08;18.70;99.90
61145;DHT22;47026;51.208;3.288;2022-08-03T02:47:40;18.50;99.90
61145;DHT22;47026;51.208;3.288;2022-08-03T02:50:08;18.60;99.90
61145;DHT22;47026;51.208;3.288;2022-08-03T02:52:36;18.50;99.90
61145;DHT22;47026;51.208;3.288;2022-08-03T02:55:03;18.60;99.90
61145;DHT22;47026;51.208;3.288;2022-08-03T02:57:30;18.60;99.90
61145;DHT22;47026;51.208;3.288;2022-08-03T02:59:59;18.70;99.90
61145;DHT22;47026;51.208;3.288;2022-08-03T03:02:27;18.60;99.90
61145;DHT22;47026;51.208;3.288;2022-08-03T03:04:54;18.60;99.90
61145;DHT22;47026;51.208;3.288;2022-08-03T03:07:21;18.40;99.90
61145;DHT22;47026;51.208;3.288;2022-08-03T03:09:48;18.50;99.90
61145;DHT22;47026;51.208;3.288;2022-08-03T03:12:14;18.30;99.90
61145;DHT22;47026;51.208;3.288;2022-08-03T03:14:41;18.30;99.90
61145;DHT22;47026;51.208;3.288;2022-08-03T03:17:08;18.30;99.90
61145;DHT22;47026;51.208;3.288;2022-08-03T03:19:38;18.30;99.90
61145;DHT22;47026;51.208;3.288;2022-08-03T03:22:06;18.30;99.90
61145;DHT22;47026;51.208;3.288;2022-08-03T03:24:34;18.40;99.90
61145;DHT22;47026;51.208;3.288;2022-08-03T03:27:01;18.30;99.90
61145;DHT22;47026;51.208;3.288;2022-08-03T03:29:28;18.30;99.90
61145;DHT22;47026;51.208;3.288;2022-08-03T03:31:54;18.30;99.90
61145;DHT22;47026;51.208;3.288;2022-08-03T03:34:22;18.20;99.90
61145;DHT22;47026;51.208;3.288;2022-08-03T03:36:48;18.20;99.90
61145;DHT22;47026;51.208;3.288;2022-08-03T03:39:14;18.10;99.90
61145;DHT22;47026;51.208;3.288;2022-08-03T03:41:40;18.20;99.90
61145;DHT22;47026;51.208;3.288;2022-08-03T03:44:07;18.30;99.90
61145;DHT22;47026;51.208;3.288;2022-08-03T03:46:33;18.30;99.90
61145;DHT22;47026;51.208;3.288;2022-08-03T03:48:58;18.20;99.90
61145;DHT22;47026;51.208;3.288;2022-08-03T03:51:24;18.10;99.90
61145;DHT22;47026;51.208;3.288;2022-08-03T03:54:01;18.10;99.90
61145;DHT22;47026;51.208;3.288;2022-08-03T03:56:27;18.10;99.90
61145;DHT22;47026;51.208;3.288;2022-08-03T03:58:54;18.30;99.90
61145;DHT22;47026;51.208;3.288;2022-08-03T04:01:21;18.30;99.90
61145;DHT22;47026;51.208;3.288;2022-08-03T04:03:47;18.30;99.90
61145;DHT22;47026;51.208;3.288;2022-08-03T04:06:14;18.20;99.90
61145;DHT22;47026;51.208;3.288;2022-08-03T04:08:59;18.20;99.90
61145;DHT22;47026;51.208;3.288;2022-08-03T04:11:54;18.40;99.90
61145;DHT22;47026;51.208;3.288;2022-08-03T04:14:31;18.40;99.90
61145;DHT22;47026;51.208;3.288;2022-08-03T04:17:01;18.20;99.90
61145;DHT22;47026;51.208;3.288;2022-08-03T04:19:37;18.10;99.90
61145;DHT22;47026;51.208;3.288;2022-08-03T04:22:11;18.20;99.90
61145;DHT22;47026;51.208;3.288;2022-08-03T04:24:45;18.20;99.90
61145;DHT22;47026;51.208;3.288;2022-08-03T04:27:18;18.10;99.90
61145;DHT22;47026;51.208;3.288;2022-08-03T04:29:47;18.10;99.90
61145;DHT22;47026;51.208;3.288;2022-08-03T04:32:14;18.00;99.90
61145;DHT22;47026;51.208;3.288;2022-08-03T04:34:40;18.20;99.90
61145;DHT22;47026;51.208;3.288;2022-08-03T04:37:40;18.10;99.90
61145;DHT22;47026;51.208;3.288;2022-08-03T04:40:18;18.10;99.90
61145;DHT22;47026;51.208;3.288;2022-08-03T04:42:47;18.20;99.90
61145;DHT22;47026;51.208;3.288;2022-08-03T04:45:15;18.30;99.90
61145;DHT22;47026;51.208;3.288;2022-08-03T04:47:41;18.40;99.90
61145;DHT22;47026;51.208;3.288;2022-08-03T04:50:08;18.50;99.90
61145;DHT22;47026;51.208;3.288;2022-08-03T04:52:35;18.40;99.90
61145;DHT22;47026;51.208;3.288;2022-08-03T04:55:01;18.40;99.90
61145;DHT22;47026;51.208;3.288;2022-08-03T04:57:27;18.40;99.90
61145;DHT22;47026;51.208;3.288;2022-08-03T04:59:53;18.30;99.90
61145;DHT22;47026;51.208;3.288;2022-08-03T05:02:21;18.40;99.90
61145;DHT22;47026;51.208;3.288;2022-08-03T05:04:48;18.50;99.90
61145;DHT22;47026;51.208;3.288;2022-08-03T05:07:15;18.40;99.90
61145;DHT22;47026;51.208;3.288;2022-08-03T05:09:41;18.40;99.90
61145;DHT22;47026;51.208;3.288;2022-08-03T05:12:07;18.60;99.90
61145;DHT22;47026;51.208;3.288;2022-08-03T05:14:34;18.50;99.90
61145;DHT22;47026;51.208;3.288;2022-08-03T05:17:03;18.70;99.90
61145;DHT22;47026;51.208;3.288;2022-08-03T05:19:28;18.70;99.90
61145;DHT22;47026;51.208;3.288;2022-08-03T05:21:55;18.90;99.90
61145;DHT22;47026;51.208;3.288;2022-08-03T05:24:21;18.90;99.90
61145;DHT22;47026;51.208;3.288;2022-08-03T05:26:46;18.90;99.90
61145;DHT22;47026;51.208;3.288;2022-08-03T05:29:12;19.00;99.90
61145;DHT22;47026;51.208;3.288;2022-08-03T05:31:38;19.10;99.90
61145;DHT22;47026;51.208;3.288;2022-08-03T05:34:05;19.10;99.90
61145;DHT22;47026;51.208;3.288;2022-08-03T05:36:31;19.30;99.90
61145;DHT22;47026;51.208;3.288;2022-08-03T05:38:56;19.20;99.90
61145;DHT22;47026;51.208;3.288;2022-08-03T05:41:22;19.30;99.90
61145;DHT22;47026;51.208;3.288;2022-08-03T05:43:49;19.50;99.90
61145;DHT22;47026;51.208;3.288;2022-08-03T05:46:15;19.50;99.90
61145;DHT22;47026;51.208;3.288;2022-08-03T05:48:41;19.60;99.90
61145;DHT22;47026;51.208;3.288;2022-08-03T05:51:07;19.40;99.90
61145;DHT22;47026;51.208;3.288;2022-08-03T05:53:36;19.40;99.90
61145;DHT22;47026;51.208;3.288;2022-08-03T05:56:02;19.40;99.90
61145;DHT22;47026;51.208;3.288;2022-08-03T05:58:28;19.50;99.90
61145;DHT22;47026;51.208;3.288;2022-08-03T06:00:54;19.60;99.90
61145;DHT22;47026;51.208;3.288;2022-08-03T06:03:20;19.60;99.90
61145;DHT22;47026;51.208;3.288;2022-08-03T06:05:46;19.60;99.90
61145;DHT22;47026;51.208;3.288;2022-08-03T06:08:12;19.80;99.90
61145;DHT22;47026;51.208;3.288;2022-08-03T06:10:38;19.90;99.90
61145;DHT22;47026;51.208;3.288;2022-08-03T06:13:04;20.10;99.90
61145;DHT22;47026;51.208;3.288;2022-08-03T06:15:30;20.30;99.90
61145;DHT22;47026;51.208;3.288;2022-08-03T06:17:58;20.30;99.90
61145;DHT22;47026;51.208;3.288;2022-08-03T06:20:24;20.40;99.90
61145;DHT22;47026;51.208;3.288;2022-08-03T06:22:50;20.40;99.90
61145;DHT22;47026;51.208;3.288;2022-08-03T06:25:16;20.50;99.90
61145;DHT22;47026;51.208;3.288;2022-08-03T06:27:42;20.60;99.90
61145;DHT22;47026;51.208;3.288;2022-08-03T06:30:10;20.60;99.90
61145;DHT22;47026;51.208;3.288;2022-08-03T06:32:39;20.70;99.90
61145;DHT22;47026;51.208;3.288;2022-08-03T06:35:07;20.80;99.90
61145;DHT22;47026;51.208;3.288;2022-08-03T06:37:43;20.90;99.90
61145;DHT22;47026;51.208;3.288;2022-08-03T06:40:18;20.90;99.90
61145;DHT22;47026;51.208;3.288;2022-08-03T06:42:44;20.90;99.90
61145;DHT22;47026;51.208;3.288;2022-08-03T06:45:11;21.00;99.90
61145;DHT22;47026;51.208;3.288;2022-08-03T06:47:38;21.20;99.90
61145;DHT22;47026;51.208;3.288;2022-08-03T06:50:05;21.30;99.90
61145;DHT22;47026;51.208;3.288;2022-08-03T06:52:32;21.30;99.90
61145;DHT22;47026;51.208;3.288;2022-08-03T06:54:58;21.40;99.90
61145;DHT22;47026;51.208;3.288;2022-08-03T06:57:24;21.40;99.90
61145;DHT22;47026;51.208;3.288;2022-08-03T06:59:50;21.60;99.90
61145;DHT22;47026;51.208;3.288;2022-08-03T07:02:17;21.70;99.90
61145;DHT22;47026;51.208;3.288;2022-08-03T07:04:43;21.90;99.90
61145;DHT22;47026;51.208;3.288;2022-08-03T07:07:09;22.40;99.90
61145;DHT22;47026;51.208;3.288;2022-08-03T07:09:35;23.00;99.90
61145;DHT22;47026;51.208;3.288;2022-08-03T07:12:02;23.30;99.90
61145;DHT22;47026;51.208;3.288;2022-08-03T07:14:28;23.70;99.90
61145;DHT22;47026;51.208;3.288;2022-08-03T07:16:54;24.10;99.90
61145;DHT22;47026;51.208;3.288;2022-08-03T07:19:20;24.70;99.90
61145;DHT22;47026;51.208;3.288;2022-08-03T07:21:46;25.20;99.90
61145;DHT22;47026;51.208;3.288;2022-08-03T07:24:12;25.60;99.90
61145;DHT22;47026;51.208;3.288;2022-08-03T07:26:37;26.00;99.90
61145;DHT22;47026;51.208;3.288;2022-08-03T07:29:12;26.50;99.90
61145;DHT22;47026;51.208;3.288;2022-08-03T07:31:38;26.80;99.90
61145;DHT22;47026;51.208;3.288;2022-08-03T07:34:04;26.70;99.90
61145;DHT22;47026;51.208;3.288;2022-08-03T07:36:30;26.70;99.90
61145;DHT22;47026;51.208;3.288;2022-08-03T07:38:56;26.60;99.90
61145;DHT22;47026;51.208;3.288;2022-08-03T07:41:23;26.50;99.90
61145;DHT22;47026;51.208;3.288;2022-08-03T07:43:49;26.80;99.90
61145;DHT22;47026;51.208;3.288;2022-08-03T07:46:15;26.60;99.90
61145;DHT22;47026;51.208;3.288;2022-08-03T07:48:40;27.20;99.90
61145;DHT22;47026;51.208;3.288;2022-08-03T07:51:06;27.60;99.90
61145;DHT22;47026;51.208;3.288;2022-08-03T07:53:32;27.70;99.90
61145;DHT22;47026;51.208;3.288;2022-08-03T07:55:58;27.90;99.90
61145;DHT22;47026;51.208;3.288;2022-08-03T07:58:23;28.20;99.90
61145;DHT22;47026;51.208;3.288;2022-08-03T08:00:50;28.40;99.90
61145;DHT22;47026;51.208;3.288;2022-08-03T08:03:17;28.60;99.90
61145;DHT22;47026;51.208;3.288;2022-08-03T08:05:43;29.10;99.90
61145;DHT22;47026;51.208;3.288;2022-08-03T08:08:09;29.00;99.90
61145;DHT22;47026;51.208;3.288;2022-08-03T08:10:35;29.10;99.90
61145;DHT22;47026;51.208;3.288;2022-08-03T08:13:04;29.20;99.90
61145;DHT22;47026;51.208;3.288;2022-08-03T08:15:30;29.90;99.90
61145;DHT22;47026;51.208;3.288;2022-08-03T08:17:58;30.60;99.90
61145;DHT22;47026;51.208;3.288;2022-08-03T08:20:29;31.10;99.90
61145;DHT22;47026;51.208;3.288;2022-08-03T08:22:59;30.90;99.90
61145;DHT22;47026;51.208;3.288;2022-08-03T08:25:25;31.40;99.90
61145;DHT22;47026;51.208;3.288;2022-08-03T08:27:51;31.90;99.90
61145;DHT22;47026;51.208;3.288;2022-08-03T08:30:19;31.90;99.90
61145;DHT22;47026;51.208;3.288;2022-08-03T08:32:45;32.50;99.90
61145;DHT22;47026;51.208;3.288;2022-08-03T08:35:11;32.60;99.90
61145;DHT22;47026;51.208;3.288;2022-08-03T08:37:38;32.80;99.90
61145;DHT22;47026;51.208;3.288;2022-08-03T08:40:05;32.20;99.90
61145;DHT22;47026;51.208;3.288;2022-08-03T08:42:32;30.80;99.90
61145;DHT22;47026;51.208;3.288;2022-08-03T08:44:59;31.80;99.90
61145;DHT22;47026;51.208;3.288;2022-08-03T08:47:29;31.90;99.90
61145;DHT22;47026;51.208;3.288;2022-08-03T08:49:57;32.00;99.90
61145;DHT22;47026;51.208;3.288;2022-08-03T08:52:27;32.80;99.90
61145;DHT22;47026;51.208;3.288;2022-08-03T08:54:56;33.70;99.90
61145;DHT22;47026;51.208;3.288;2022-08-03T08:57:29;33.30;99.90
61145;DHT22;47026;51.208;3.288;2022-08-03T08:59:58;33.40;99.90
61145;DHT22;47026;51.208;3.288;2022-08-03T09:02:28;33.10;99.90
61145;DHT22;47026;51.208;3.288;2022-08-03T09:04:55;33.30;99.90
61145;DHT22;47026;51.208;3.288;2022-08-03T09:07:22;33.60;99.90
61145;DHT22;47026;51.208;3.288;2022-08-03T09:09:48;34.50;99.90
61145;DHT22;47026;51.208;3.288;2022-08-03T09:12:14;34.60;99.90
61145;DHT22;47026;51.208;3.288;2022-08-03T09:14:40;34.00;99.90
61145;DHT22;47026;51.208;3.288;2022-08-03T09:17:06;33.90;99.90
61145;DHT22;47026;51.208;3.288;2022-08-03T09:19:33;33.80;99.90
61145;DHT22;47026;51.208;3.288;2022-08-03T09:22:18;34.30;99.90
61145;DHT22;47026;51.208;3.288;2022-08-03T09:24:58;35.60;99.90
61145;DHT22;47026;51.208;3.288;2022-08-03T09:27:24;35.70;99.90
61145;DHT22;47026;51.208;3.288;2022-08-03T09:29:52;35.90;99.90
61145;DHT22;47026;51.208;3.288;2022-08-03T09:32:20;35.60;99.90
61145;DHT22;47026;51.208;3.288;2022-08-03T09:34:50;35.40;99.90
61145;DHT22;47026;51.208;3.288;2022-08-03T09:37:19;35.60;99.40
61145;DHT22;47026;51.208;3.288;2022-08-03T09:39:46;36.00;98.40
61145;DHT22;47026;51.208;3.288;2022-08-03T09:42:15;36.30;98.40
61145;DHT22;47026;51.208;3.288;2022-08-03T09:44:47;37.30;97.10
61145;DHT22;47026;51.208;3.288;2022-08-03T09:47:29;37.40;96.50
61145;DHT22;47026;51.208;3.288;2022-08-03T09:50:01;37.60;96.20
61145;DHT22;47026;51.208;3.288;2022-08-03T09:52:35;37.80;95.30
61145;DHT22;47026;51.208;3.288;2022-08-03T09:55:12;38.80;93.90
61145;DHT22;47026;51.208;3.288;2022-08-03T09:57:39;37.50;94.00
61145;DHT22;47026;51.208;3.288;2022-08-03T10:00:23;37.90;93.80
61145;DHT22;47026;51.208;3.288;2022-08-03T10:03:03;37.40;93.80
61145;DHT22;47026;51.208;3.288;2022-08-03T10:05:33;37.70;93.80
61145;DHT22;47026;51.208;3.288;2022-08-03T10:07:59;37.70;93.30
61145;DHT22;47026;51.208;3.288;2022-08-03T10:10:24;37.70;93.40
61145;DHT22;47026;51.208;3.288;2022-08-03T10:12:50;37.20;93.00
61145;DHT22;47026;51.208;3.288;2022-08-03T10:15:17;37.70;93.40
61145;DHT22;47026;51.208;3.288;2022-08-03T10:17:43;38.20;92.40
61145;DHT22;47026;51.208;3.288;2022-08-03T10:20:09;38.20;92.30
61145;DHT22;47026;51.208;3.288;2022-08-03T10:22:36;37.70;92.60
61145;DHT22;47026;51.208;3.288;2022-08-03T10:25:07;38.00;92.60
61145;DHT22;47026;51.208;3.288;2022-08-03T10:27:37;38.50;91.70
61145;DHT22;47026;51.208;3.288;2022-08-03T10:30:06;38.80;91.10
61145;DHT22;47026;51.208;3.288;2022-08-03T10:35:06;38.90;90.60
61145;DHT22;47026;51.208;3.288;2022-08-03T10:40:15;39.60;90.20
61145;DHT22;47026;51.208;3.288;2022-08-03T10:42:45;39.00;90.00
61145;DHT22;47026;51.208;3.288;2022-08-03T10:45:18;38.60;90.20
61145;DHT22;47026;51.208;3.288;2022-08-03T10:47:48;38.60;90.10
61145;DHT22;47026;51.208;3.288;2022-08-03T10:50:16;38.70;90.10
61145;DHT22;47026;51.208;3.288;2022-08-03T10:53:08;38.20;90.00
61145;DHT22;47026;51.208;3.288;2022-08-03T10:55:40;38.20;90.40
61145;DHT22;47026;51.208;3.288;2022-08-03T11:01:10;38.00;90.10
61145;DHT22;47026;51.208;3.288;2022-08-03T11:06:19;38.00;90.30
61145;DHT22;47026;51.208;3.288;2022-08-03T11:08:46;38.80;89.40
61145;DHT22;47026;51.208;3.288;2022-08-03T11:16:42;38.30;87.90
61145;DHT22;47026;51.208;3.288;2022-08-03T11:19:11;38.40;88.70
61145;DHT22;47026;51.208;3.288;2022-08-03T11:30:10;39.50;85.60
61145;DHT22;47026;51.208;3.288;2022-08-03T11:35:30;40.20;84.20
61145;DHT22;47026;51.208;3.288;2022-08-03T11:46:09;38.70;85.30
61145;DHT22;47026;51.208;3.288;2022-08-03T11:48:49;39.20;85.40
61145;DHT22;47026;51.208;3.288;2022-08-03T11:51:27;39.90;83.80
61145;DHT22;47026;51.208;3.288;2022-08-03T11:54:04;39.60;84.00
61145;DHT22;47026;51.208;3.288;2022-08-03T11:56:47;39.40;84.20
61145;DHT22;47026;51.208;3.288;2022-08-03T11:59:14;39.60;84.00
61145;DHT22;47026;51.208;3.288;2022-08-03T12:01:43;39.00;83.20
61145;DHT22;47026;51.208;3.288;2022-08-03T12:04:10;39.20;83.70
61145;DHT22;47026;51.208;3.288;2022-08-03T12:06:40;39.50;83.60
61145;DHT22;47026;51.208;3.288;2022-08-03T12:09:21;40.60;81.30
61145;DHT22;47026;51.208;3.288;2022-08-03T12:11:48;40.60;80.60
61145;DHT22;47026;51.208;3.288;2022-08-03T12:14:19;39.30;83.00
61145;DHT22;47026;51.208;3.288;2022-08-03T12:16:48;38.00;85.10
61145;DHT22;47026;51.208;3.288;2022-08-03T12:19:14;38.80;85.10
61145;DHT22;47026;51.208;3.288;2022-08-03T12:21:47;39.70;81.00
61145;DHT22;47026;51.208;3.288;2022-08-03T12:24:14;40.90;80.20
61145;DHT22;47026;51.208;3.288;2022-08-03T12:26:44;41.30;78.10
61145;DHT22;47026;51.208;3.288;2022-08-03T12:29:20;41.40;78.30
61145;DHT22;47026;51.208;3.288;2022-08-03T12:31:46;41.80;77.80
61145;DHT22;47026;51.208;3.288;2022-08-03T12:34:12;41.30;76.90
61145;DHT22;47026;51.208;3.288;2022-08-03T12:36:50;40.40;79.00
61145;DHT22;47026;51.208;3.288;2022-08-03T12:39:17;41.20;78.40
61145;DHT22;47026;51.208;3.288;2022-08-03T12:41:52;42.00;77.10
61145;DHT22;47026;51.208;3.288;2022-08-03T12:44:32;41.30;76.60
61145;DHT22;47026;51.208;3.288;2022-08-03T12:46:59;42.00;76.50
61145;DHT22;47026;51.208;3.288;2022-08-03T12:49:26;41.10;77.50
61145;DHT22;47026;51.208;3.288;2022-08-03T12:54:20;42.00;75.20
61145;DHT22;47026;51.208;3.288;2022-08-03T12:59:32;41.60;75.70
61145;DHT22;47026;51.208;3.288;2022-08-03T13:01:58;41.70;75.80
61145;DHT22;47026;51.208;3.288;2022-08-03T13:04:28;42.50;74.20
61145;DHT22;47026;51.208;3.288;2022-08-03T13:07:10;41.80;74.10
61145;DHT22;47026;51.208;3.288;2022-08-03T13:09:47;42.40;73.90
61145;DHT22;47026;51.208;3.288;2022-08-03T13:12:20;43.90;72.40
61145;DHT22;47026;51.208;3.288;2022-08-03T13:14:48;44.00;71.30
61145;DHT22;47026;51.208;3.288;2022-08-03T13:17:14;43.80;70.60
61145;DHT22;47026;51.208;3.288;2022-08-03T13:19:41;43.10;70.60
61145;DHT22;47026;51.208;3.288;2022-08-03T13:22:25;42.40;72.10
61145;DHT22;47026;51.208;3.288;2022-08-03T13:24:54;42.90;72.00
61145;DHT22;47026;51.208;3.288;2022-08-03T13:27:24;43.10;70.40
61145;DHT22;47026;51.208;3.288;2022-08-03T13:29:50;43.50;70.30
61145;DHT22;47026;51.208;3.288;2022-08-03T13:32:17;43.40;69.10
61145;DHT22;47026;51.208;3.288;2022-08-03T13:34:43;43.90;68.00
61145;DHT22;47026;51.208;3.288;2022-08-03T13:37:09;43.70;69.50
61145;DHT22;47026;51.208;3.288;2022-08-03T13:39:37;43.80;68.80
61145;DHT22;47026;51.208;3.288;2022-08-03T13:42:03;43.00;68.40
61145;DHT22;47026;51.208;3.288;2022-08-03T13:44:30;42.70;69.40
61145;DHT22;47026;51.208;3.288;2022-08-03T13:46:57;41.30;71.70
61145;DHT22;47026;51.208;3.288;2022-08-03T13:49:25;40.70;72.60
61145;DHT22;47026;51.208;3.288;2022-08-03T13:51:51;39.50;75.70
61145;DHT22;47026;51.208;3.288;2022-08-03T13:54:17;38.40;77.30
61145;DHT22;47026;51.208;3.288;2022-08-03T13:56:44;38.10;78.20
61145;DHT22;47026;51.208;3.288;2022-08-03T13:59:21;38.80;77.10
61145;DHT22;47026;51.208;3.288;2022-08-03T14:01:48;38.70;77.30
61145;DHT22;47026;51.208;3.288;2022-08-03T14:04:14;39.10;77.20
61145;DHT22;47026;51.208;3.288;2022-08-03T14:06:41;39.20;76.20
61145;DHT22;47026;51.208;3.288;2022-08-03T14:09:08;38.80;76.90
61145;DHT22;47026;51.208;3.288;2022-08-03T14:11:34;39.20;75.20
61145;DHT22;47026;51.208;3.288;2022-08-03T14:14:00;39.00;75.50
61145;DHT22;47026;51.208;3.288;2022-08-03T14:16:26;40.20;74.70
61145;DHT22;47026;51.208;3.288;2022-08-03T14:18:52;41.10;71.80
61145;DHT22;47026;51.208;3.288;2022-08-03T14:21:18;41.40;71.70
61145;DHT22;47026;51.208;3.288;2022-08-03T14:23:44;40.60;76.50
61145;DHT22;47026;51.208;3.288;2022-08-03T14:26:10;38.30;80.90
61145;DHT22;47026;51.208;3.288;2022-08-03T14:28:36;37.30;84.50
61145;DHT22;47026;51.208;3.288;2022-08-03T14:31:03;36.40;86.10
61145;DHT22;47026;51.208;3.288;2022-08-03T14:33:29;36.40;87.00
61145;DHT22;47026;51.208;3.288;2022-08-03T14:35:55;36.50;87.30
61145;DHT22;47026;51.208;3.288;2022-08-03T14:38:21;37.00;86.50
61145;DHT22;47026;51.208;3.288;2022-08-03T14:40:47;37.60;85.40
61145;DHT22;47026;51.208;3.288;2022-08-03T14:43:14;37.80;84.50
61145;DHT22;47026;51.208;3.288;2022-08-03T14:45:42;37.30;85.30
61145;DHT22;47026;51.208;3.288;2022-08-03T14:48:08;36.50;86.80
61145;DHT22;47026;51.208;3.288;2022-08-03T14:50:34;37.10;86.50
61145;DHT22;47026;51.208;3.288;2022-08-03T14:53:00;37.70;85.40
61145;DHT22;47026;51.208;3.288;2022-08-03T14:55:26;37.80;83.80
61145;DHT22;47026;51.208;3.288;2022-08-03T14:57:52;37.20;84.80
61145;DHT22;47026;51.208;3.288;2022-08-03T15:00:18;36.70;85.90
61145;DHT22;47026;51.208;3.288;2022-08-03T15:02:44;36.30;86.90
61145;DHT22;47026;51.208;3.288;2022-08-03T15:05:10;36.90;87.50
61145;DHT22;47026;51.208;3.288;2022-08-03T15:07:37;37.10;86.10
61145;DHT22;47026;51.208;3.288;2022-08-03T15:10:04;37.10;85.80
61145;DHT22;47026;51.208;3.288;2022-08-03T15:12:30;37.40;84.90
61145;DHT22;47026;51.208;3.288;2022-08-03T15:14:57;38.00;84.10
61145;DHT22;47026;51.208;3.288;2022-08-03T15:17:22;38.30;84.10
61145;DHT22;47026;51.208;3.288;2022-08-03T15:19:48;37.70;84.80
61145;DHT22;47026;51.208;3.288;2022-08-03T15:22:14;37.30;86.00
61145;DHT22;47026;51.208;3.288;2022-08-03T15:24:41;36.80;86.40
61145;DHT22;47026;51.208;3.288;2022-08-03T15:27:07;36.60;87.50
61145;DHT22;47026;51.208;3.288;2022-08-03T15:29:33;36.10;87.90
61145;DHT22;47026;51.208;3.288;2022-08-03T15:31:59;36.20;88.10
61145;DHT22;47026;51.208;3.288;2022-08-03T15:34:25;36.00;88.70
61145;DHT22;47026;51.208;3.288;2022-08-03T15:36:51;36.20;88.70
61145;DHT22;47026;51.208;3.288;2022-08-03T15:39:17;36.10;88.40
61145;DHT22;47026;51.208;3.288;2022-08-03T15:41:42;36.50;87.30
61145;DHT22;47026;51.208;3.288;2022-08-03T15:44:09;36.20;87.40
61145;DHT22;47026;51.208;3.288;2022-08-03T15:46:35;35.60;89.10
61145;DHT22;47026;51.208;3.288;2022-08-03T15:49:01;36.50;88.00
61145;DHT22;47026;51.208;3.288;2022-08-03T15:51:27;35.90;88.00
61145;DHT22;47026;51.208;3.288;2022-08-03T15:53:53;36.10;88.00
61145;DHT22;47026;51.208;3.288;2022-08-03T15:56:18;36.50;87.10
61145;DHT22;47026;51.208;3.288;2022-08-03T15:58:44;34.90;89.40
61145;DHT22;47026;51.208;3.288;2022-08-03T16:01:10;35.20;89.70
61145;DHT22;47026;51.208;3.288;2022-08-03T16:03:36;35.10;90.00
61145;DHT22;47026;51.208;3.288;2022-08-03T16:06:06;34.60;90.60
61145;DHT22;47026;51.208;3.288;2022-08-03T16:08:32;34.30;90.40
61145;DHT22;47026;51.208;3.288;2022-08-03T16:10:59;34.50;90.50
61145;DHT22;47026;51.208;3.288;2022-08-03T16:13:26;34.30;90.60
61145;DHT22;47026;51.208;3.288;2022-08-03T16:15:52;33.90;90.90
61145;DHT22;47026;51.208;3.288;2022-08-03T16:18:19;33.30;91.60
61145;DHT22;47026;51.208;3.288;2022-08-03T16:20:46;33.10;91.90
61145;DHT22;47026;51.208;3.288;2022-08-03T16:23:13;32.50;92.30
61145;DHT22;47026;51.208;3.288;2022-08-03T16:25:40;32.20;93.00